Latest Weather Observations for Amberley

IDQ60901

Issued at 2:41 pm EST Saturday 21 October 2017 (issued every 10 minutes, with the page automatically refreshed every 10 minutes)

About weather observations | Map of Brisbane area stations | Latest observations for Brisbane area | Other Formats
Station Details ID: 040004 Name: AMBERLEY AMO Lat: -27.63 Lon: 152.71 Height: 24.2 m
Data from the previous 72 hours. | See also: Recent months at Amberley
Date/Time
EST
Temp
°C
App
Temp
°C
Dew
Point
°C
Rel
Hum
%
Delta-T
°C
Wind Press
QNH
hPa
Press
MSL
hPa
Rain since
9am
mm
Dir  Spd
km/h
Gust
km/h
Spd
kts
Gust
kts
21/02:30pm 16.8 17.0 15.8 94 0.6 SSW 9 13 5 7 1014.6 1014.5 12.0
21/02:00pm 16.7 16.0 15.5 93 0.7 S 13 17 7 9 1014.4 1014.3 11.2
21/01:44pm 16.6 15.6 15.6 94 0.6 SSW 15 22 8 12 1014.6 1014.5 10.6
21/01:32pm 16.6 15.5 15.4 93 0.7 SSW 15 20 8 11 1014.8 1014.7 9.6
21/01:30pm 16.6 15.5 15.4 93 0.7 SSW 15 20 8 11 1014.8 1014.7 9.4
21/01:00pm 17.1 15.5 15.0 87 1.2 SSW 17 22 9 12 1014.7 1014.6 8.6
21/12:55pm 17.3 16.3 15.6 90 1.0 SSW 15 20 8 11 1014.7 1014.6 8.6
21/12:43pm 17.4 16.5 15.9 91 0.9 SSW 15 19 8 10 1014.8 1014.7 8.6
21/12:30pm 17.6 17.1 15.9 90 1.0 S 13 19 7 10 1015.0 1014.9 8.6
21/12:20pm 17.6 17.1 15.9 90 1.0 S 13 19 7 10 1015.0 1014.9 8.6
21/12:00pm 17.6 17.2 16.3 92 0.8 SSW 13 19 7 10 1015.3 1015.2 8.2
21/11:51am 17.7 17.8 16.4 92 0.8 SSW 11 15 6 8 1015.3 1015.2 8.0
21/11:37am 17.7 17.4 16.5 93 0.7 SSW 13 17 7 9 1015.3 1015.2 7.4
21/11:30am 17.7 17.8 16.4 92 0.8 SSW 11 15 6 8 1015.3 1015.2 7.4
21/11:10am 17.4 17.8 16.2 93 0.7 SSW 9 13 5 7 1015.7 1015.6 7.0
21/11:06am 17.4 17.8 16.2 93 0.7 S 9 13 5 7 1015.8 1015.7 7.0
21/11:00am 17.4 17.4 16.2 93 0.7 S 11 15 6 8 1015.8 1015.7 7.0
21/10:36am 17.3 16.3 16.6 96 0.4 SSE 17 22 9 12 1015.9 1015.8 6.2
21/10:30am 17.5 17.3 16.7 95 0.5 SSE 13 19 7 10 1016.0 1015.9 5.6
21/10:00am 17.5 15.2 16.7 95 0.5 S 24 30 13 16 1015.9 1015.8 3.0
21/09:30am 17.8 17.6 16.8 94 0.6 S 13 24 7 13 1016.0 1015.9 1.4
21/09:20am 18.2 19.3 17.2 94 0.6 SSE 7 9 4 5 1016.0 1015.9 0.6
21/09:00am 17.9 20.3 16.9 94 0.6 CALM 0 0 0 0 1016.0 1015.9 6.2
21/08:30am 18.1 19.9 17.3 95 0.5 ESE 4 7 2 4 1016.1 1016.0 5.6
21/08:06am 18.1 20.5 17.1 94 0.6 CALM 0 4 0 2 1016.2 1016.1 4.8
21/08:00am 18.1 19.8 17.1 94 0.6 E 4 7 2 4 1016.0 1015.9 4.4
21/07:30am 17.9 19.2 17.2 96 0.4 ESE 6 7 3 4 1015.2 1015.1 3.6
21/07:00am 17.7 18.7 16.9 95 0.5 S 7 9 4 5 1015.4 1015.3 2.8
21/06:30am 17.8 20.2 17.0 95 0.5 CALM 0 0 0 0 1015.4 1015.3 1.8
21/06:00am 17.9 20.3 16.9 94 0.6 CALM 0 0 0 0 1015.5 1015.4 0.6
21/05:30am 18.0 19.1 16.5 91 0.9 SSW 6 7 3 4 1015.5 1015.4 0.0
21/05:00am 17.9 20.1 16.6 92 0.8 CALM 0 0 0 0 1015.0 1014.9 0.0
21/04:30am 17.5 19.6 16.2 92 0.8 CALM 0 0 0 0 1014.4 1014.3 0.0
21/04:00am 17.5 19.6 16.2 92 0.8 CALM 0 0 0 0 1014.2 1014.1 0.0
21/03:30am 17.6 19.0 16.3 92 0.8 NW 4 11 2 6 1014.4 1014.3 0.0
21/03:00am 17.5 19.2 16.2 92 0.8 NE 2 9 1 5 1014.5 1014.4 0.0
21/02:30am 17.9 20.0 16.2 90 1.0 CALM 0 0 0 0 1014.6 1014.5 0.0
21/02:00am 17.3 19.3 15.9 91 0.8 CALM 0 0 0 0 1015.0 1014.9 0.0
21/01:30am 17.5 19.5 16.0 91 0.9 CALM 0 0 0 0 1015.1 1015.0 0.0
21/01:00am 17.6 19.6 15.9 90 1.0 CALM 0 0 0 0 1015.5 1015.4 0.0
21/12:30am 18.1 20.1 15.9 87 1.3 CALM 0 6 0 3 1015.8 1015.7 0.0
21/12:00am 18.0 19.6 16.0 88 1.2 SSW 2 7 1 4 1016.1 1016.0 0.0
 
Date/Time
EST
Temp
°C
App
Temp
°C
Dew
Point
°C
Rel
Hum
%
Delta-T
°C
Wind Press
QNH
hPa
Press
MSL
hPa
Rain since
9am
mm
Dir  Spd
km/h
Gust
km/h
Spd
kts
Gust
kts
20/11:30pm 17.4 19.4 16.0 91 0.8 CALM 0 0 0 0 1016.4 1016.3 0.0
20/11:00pm 17.9 17.6 15.5 86 1.4 SSW 11 11 6 6 1016.7 1016.6 0.0
20/10:30pm 18.2 18.3 15.5 84 1.6 SSW 9 9 5 5 1016.8 1016.7 0.0
20/10:00pm 17.9 19.1 15.0 83 1.7 SSE 2 9 1 5 1016.9 1016.8 0.0
20/09:30pm 18.4 18.8 15.3 82 1.8 ESE 7 9 4 5 1016.7 1016.6 0.0
20/09:00pm 18.8 18.6 14.7 77 2.4 E 9 11 5 6 1016.8 1016.7 0.0
20/08:30pm 19.5 19.8 15.1 76 2.6 E 7 11 4 6 1016.8 1016.7 0.0
20/08:00pm 20.5 20.5 15.1 71 3.2 E 9 9 5 5 1016.7 1016.6 0.0
20/07:30pm 21.1 20.6 15.0 68 3.6 ENE 11 15 6 8 1016.6 1016.5 0.0
20/07:00pm 21.6 20.8 15.0 66 3.9 ENE 13 17 7 9 1016.5 1016.4 0.0
20/06:30pm 22.5 21.2 14.9 62 4.5 NE 15 19 8 10 1016.4 1016.3 0.0
20/06:00pm 23.2 21.4 15.5 62 4.6 NE 19 26 10 14 1016.2 1016.1 0.0
20/05:30pm 24.2 22.2 15.6 58 5.2 NE 20 28 11 15 1016.0 1015.9 0.0
20/05:00pm 25.4 23.3 15.3 53 6.1 NE 20 26 11 14 1015.9 1015.8 0.0
20/04:30pm 26.1 25.6 13.7 46 7.3 N 9 15 5 8 1015.9 1015.8 0.0
20/04:00pm 26.7 26.2 13.9 45 7.6 NNE 9 17 5 9 1016.0 1015.9 0.0
20/03:30pm 26.7 25.9 14.1 46 7.5 N 11 19 6 10 1016.1 1016.0 0.0
20/03:00pm 26.6 26.4 13.7 45 7.6 NNE 7 17 4 9 1016.4 1016.3 0.0
20/02:30pm 25.7 24.9 14.0 48 6.9 NNW 11 17 6 9 1017.0 1016.9 0.0
20/02:00pm 26.5 25.9 14.7 48 7.1 NW 11 15 6 8 1017.6 1017.5 0.0
20/01:30pm 26.2 25.8 15.1 50 6.7 N 11 17 6 9 1018.1 1018.0 0.0
20/01:00pm 25.2 24.7 14.8 52 6.2 NE 11 19 6 10 1018.6 1018.5 0.0
20/12:37pm 25.2 25.2 14.2 50 6.5 ENE 7 11 4 6 1018.9 1018.8 0.0
20/12:30pm 25.4 25.4 14.3 50 6.6 ESE 7 13 4 7 1019.0 1018.9 0.0
20/12:00pm 25.6 25.2 14.1 49 6.8 W 9 13 5 7 1019.5 1019.4 0.0
20/11:30am 24.1 24.4 14.5 55 5.7 WNW 6 11 3 6 1020.1 1020.0 0.0
20/11:00am 23.6 23.6 15.2 59 5.0 NNW 9 17 5 9 1020.6 1020.5 0.0
20/10:30am 23.5 23.9 14.7 57 5.2 N 6 11 3 6 1021.0 1020.9 0.0
20/10:00am 23.5 24.1 15.3 60 4.9 NNE 6 11 3 6 1021.3 1021.2 0.0
20/09:30am 22.7 22.4 14.5 60 4.8 NE 9 15 5 8 1021.4 1021.3 0.0
20/09:00am 23.1 22.9 14.6 58 5.0 E 9 17 5 9 1021.5 1021.4 0.0
20/08:30am 21.7 22.5 16.4 72 3.2 E 7 13 4 7 1021.7 1021.6 0.0
20/08:00am 20.7 22.9 16.4 76 2.6 CALM 0 0 0 0 1021.7 1021.6 0.0
20/07:30am 19.6 21.8 16.4 82 1.9 CALM 0 0 0 0 1021.8 1021.7 0.0
20/07:00am 18.4 20.7 16.7 90 1.0 CALM 0 0 0 0 1021.8 1021.7 0.0
20/06:30am 17.6 19.8 16.4 93 0.7 CALM 0 6 0 3 1021.8 1021.7 0.0
20/06:00am 17.0 18.9 15.8 93 0.7 CALM 0 0 0 0 1021.7 1021.6 0.0
20/05:30am 16.4 18.2 15.5 94 0.5 CALM 0 0 0 0 1021.3 1021.2 0.0
20/05:00am 16.2 17.9 15.2 94 0.6 CALM 0 0 0 0 1021.2 1021.1 0.0
20/04:30am 16.4 16.8 15.4 94 0.6 S 7 9 4 5 1021.2 1021.1 0.0
20/04:00am 16.2 17.9 15.3 94 0.5 CALM 0 0 0 0 1021.0 1020.9 0.0
20/03:30am 16.3 18.2 15.8 97 0.3 CALM 0 2 0 1 1021.0 1020.9 0.0
20/03:00am 15.8 17.5 15.1 96 0.4 CALM 0 0 0 0 1020.9 1020.8 0.0
20/02:30am 15.6 17.2 14.9 96 0.4 CALM 0 0 0 0 1021.3 1021.2 0.0
20/02:00am 15.8 17.4 14.9 94 0.5 CALM 0 0 0 0 1021.6 1021.5 0.0
20/01:30am 16.0 16.3 15.0 94 0.6 S 7 9 4 5 1022.0 1021.9 0.0
20/01:00am 16.1 17.8 15.2 94 0.5 CALM 0 0 0 0 1022.2 1022.1 0.0
20/12:30am 16.2 17.6 15.3 94 0.5 SW 2 7 1 4 1022.8 1022.7 0.0
20/12:00am 15.9 17.5 15.0 94 0.5 CALM 0 0 0 0 1023.2 1023.1 0.0
 
Date/Time
EST
Temp
°C
App
Temp
°C
Dew
Point
°C
Rel
Hum
%
Delta-T
°C
Wind Press
QNH
hPa
Press
MSL
hPa
Rain since
9am
mm
Dir  Spd
km/h
Gust
km/h
Spd
kts
Gust
kts
19/11:30pm 15.4 15.6 14.7 96 0.4 WNW 7 9 4 5 1023.6 1023.5 0.0
19/11:00pm 15.5 17.0 14.6 94 0.5 CALM 0 0 0 0 1023.9 1023.8 0.0
19/10:30pm 16.1 17.6 14.7 91 0.8 CALM 0 0 0 0 1024.1 1024.0 0.0
19/10:00pm 15.8 17.3 14.6 93 0.7 CALM 0 0 0 0 1024.3 1024.2 0.0
19/09:30pm 17.3 19.0 15.2 87 1.2 CALM 0 0 0 0 1024.4 1024.3 0.0
19/09:00pm 17.5 18.7 14.9 85 1.5 SE 2 7 1 4 1024.4 1024.3 0.0
19/08:30pm 17.6 17.9 14.6 82 1.7 ESE 6 7 3 4 1024.4 1024.3 0.0
19/08:00pm 19.2 18.8 15.3 78 2.3 E 11 11 6 6 1024.2 1024.1 0.0
19/07:30pm 20.2 20.1 14.9 71 3.1 E 9 13 5 7 1024.1 1024.0 0.0
19/07:00pm 20.4 19.1 14.7 70 3.3 NNE 15 19 8 10 1023.8 1023.7 0.0
19/06:30pm 21.0 19.2 14.5 66 3.8 NE 17 24 9 13 1023.6 1023.5 0.0
19/06:00pm 21.4 20.8 14.7 65 3.9 ENE 11 15 6 8 1023.4 1023.3 0.0
19/05:30pm 21.8 20.4 14.6 63 4.2 ENE 15 20 8 11 1023.0 1022.9 0.0
19/05:00pm 22.3 19.9 14.4 61 4.6 ENE 20 26 11 14 1022.8 1022.7 0.0
19/04:30pm 22.8 20.9 14.3 58 5.0 ENE 17 24 9 13 1022.6 1022.5 0.0
19/04:00pm 23.1 20.7 14.4 58 5.1 E 20 28 11 15 1022.4 1022.3 0.0
19/03:30pm 23.6 20.9 14.6 57 5.3 E 22 28 12 15 1022.4 1022.3 0.0
19/03:00pm 23.3 21.2 14.7 58 5.1 E 19 24 10 13 1022.7 1022.6 0.0
19/02:30pm 23.1 21.3 15.4 62 4.6 E 19 30 10 16 1022.9 1022.8 0.0
19/02:00pm 23.1 20.9 14.8 59 4.9 E 20 32 11 17 1023.2 1023.1 0.0
19/01:30pm 22.6 19.7 15.2 63 4.4 ENE 24 35 13 19 1023.7 1023.6 0.0
19/01:00pm 23.0 19.9 14.5 58 5.0 ENE 24 33 13 18 1023.9 1023.8 0.0
19/12:30pm 23.1 20.6 15.2 61 4.7 E 22 33 12 18 1024.2 1024.1 0.0
19/12:00pm 23.2 20.8 14.3 57 5.2 E 20 28 11 15 1024.4 1024.3 0.0
19/11:30am 23.5 21.3 14.9 58 5.1 ENE 20 30 11 16 1024.5 1024.4 0.0
19/11:00am 23.0 22.0 15.5 62 4.5 ENE 15 24 8 13 1024.8 1024.7 0.0
19/10:30am 22.4 20.4 15.5 65 4.1 ENE 20 43 11 23 1025.2 1025.1 0.0
19/10:00am 22.3 21.6 16.3 69 3.6 ENE 15 20 8 11 1025.2 1025.1 0.0
19/09:30am 20.6 17.8 16.3 76 2.6 ENE 26 35 14 19 1025.5 1025.4 0.0
19/09:00am 21.5 20.0 15.4 68 3.6 E 17 26 9 14 1025.6 1025.5 1.2
19/08:30am 21.9 20.0 15.7 68 3.7 E 20 30 11 16 1025.7 1025.6 1.2
19/08:00am 21.5 21.1 16.2 72 3.2 ESE 13 17 7 9 1025.6 1025.5 1.2
19/07:30am 20.0 20.6 16.9 82 1.9 S 9 13 5 7 1025.7 1025.6 1.2
19/07:00am 19.4 19.5 16.6 84 1.7 SSW 11 13 6 7 1025.6 1025.5 1.2
19/06:30am 18.1 20.3 16.4 90 1.0 CALM 0 0 0 0 1025.5 1025.4 1.2
19/06:00am 17.6 19.6 15.9 90 1.0 CALM 0 0 0 0 1025.2 1025.1 1.2
19/05:30am 17.4 17.7 16.0 91 0.8 SSE 9 11 5 6 1025.0 1024.9 1.2
19/05:00am 17.8 18.3 16.5 92 0.8 SSE 9 13 5 7 1024.8 1024.7 1.2
19/04:30am 17.5 19.7 16.5 94 0.6 CALM 0 0 0 0 1024.6 1024.5 1.2
19/04:00am 17.6 19.9 16.8 95 0.5 CALM 0 6 0 3 1024.7 1024.6 1.2
19/03:30am 17.7 20.1 16.9 95 0.5 CALM 0 0 0 0 1024.5 1024.4 1.2
19/03:00am 17.6 19.8 16.6 94 0.6 CALM 0 0 0 0 1024.3 1024.2 1.2
19/02:30am 17.4 17.9 16.6 95 0.5 S 9 9 5 5 1024.3 1024.2 1.2
19/02:00am 17.3 19.5 16.5 95 0.5 CALM 0 6 0 3 1024.4 1024.3 1.2
19/01:30am 17.7 18.3 16.9 95 0.5 S 9 13 5 7 1024.8 1024.7 1.2
19/01:00am 17.8 18.4 16.8 94 0.6 S 9 13 5 7 1025.1 1025.0 1.2
19/12:30am 17.7 18.3 16.7 94 0.6 SE 9 11 5 6 1025.4 1025.3 1.2
19/12:11am 17.8 18.0 16.8 94 0.6 ESE 11 13 6 7 1025.5 1025.4 1.0
19/12:00am 17.8 18.4 16.8 94 0.6 E 9 15 5 8 1025.6 1025.5 1.0
 
Date/Time
EST
Temp
°C
App
Temp
°C
Dew
Point
°C
Rel
Hum
%
Delta-T
°C
Wind Press
QNH
hPa
Press
MSL
hPa
Rain since
9am
mm
Dir  Spd
km/h
Gust
km/h
Spd
kts
Gust
kts
18/11:30pm 17.9 17.7 16.7 93 0.7 SE 13 19 7 10 1026.1 1026.0 0.8
18/11:08pm 18.0 18.4 17.2 95 0.5 SSE 11 15 6 8 1026.2 1026.1 0.8
18/11:00pm 17.9 18.7 17.2 96 0.4 SE 9 13 5 7 1026.3 1026.3 0.8
18/10:45pm 18.1 17.7 17.1 94 0.6 ESE 15 20 8 11 1026.3 1026.3 0.8
18/10:30pm 18.3 17.8 17.0 92 0.8 SE 15 20 8 11 1026.4 1026.4 0.6
18/10:11pm 18.4 18.7 17.1 92 0.8 SE 11 19 6 10 1026.5 1026.5 0.6
18/10:00pm 18.3 20.0 17.1 93 0.7 SE 4 11 2 6 1026.5 1026.5 0.6
18/09:30pm 18.2 19.3 17.2 94 0.6 ESE 7 9 4 5 1026.3 1026.3 0.6
18/09:21pm 18.2 19.0 17.2 94 0.6 SE 9 11 5 6 1026.4 1026.4 0.6
18/09:20pm 18.2 19.0 17.2 94 0.6 SE 9 11 5 6 1026.4 1026.4 0.6
18/09:03pm 18.2 18.2 17.2 94 0.6 ESE 13 20 7 11 1026.4 1026.4 0.6
18/09:00pm 18.3 18.6 17.1 93 0.7 SE 11 17 6 9 1026.4 1026.4 0.6
18/08:56pm 18.3 18.3 17.1 93 0.7 SE 13 17 7 9 1026.4 1026.4 0.6
18/08:30pm 18.3 18.3 17.3 94 0.6 SE 13 17 7 9 1026.2 1026.1 0.4
18/08:25pm 18.4 18.4 17.2 93 0.7 SE 13 17 7 9 1026.1 1026.0 0.4
18/08:04pm 18.4 18.4 17.2 93 0.7 E 13 15 7 8 1025.9 1025.8 0.2
18/08:00pm 18.4 18.4 17.2 93 0.7 E 13 15 7 8 1025.8 1025.7 0.2
18/07:42pm 18.6 18.1 16.9 90 1.0 SE 15 19 8 10 1025.7 1025.6 0.2
18/07:30pm 19.0 18.0 16.7 86 1.4 SE 17 19 9 10 1025.5 1025.4 0.2
18/07:08pm 19.0 18.8 16.8 87 1.3 SE 13 19 7 10 1025.1 1025.0 0.2
18/07:00pm 19.0 18.4 16.7 86 1.4 SE 15 20 8 11 1025.0 1024.9 0.2
18/06:30pm 18.7 17.8 16.9 89 1.1 SE 17 26 9 14 1024.7 1024.6 0.2
18/06:23pm 18.7 17.8 16.9 89 1.1 SE 17 26 9 14 1024.6 1024.5 0.2
18/06:00pm 19.3 18.3 16.5 84 1.7 E 17 22 9 12 1024.3 1024.2 0.2
18/05:30pm 19.9 17.3 16.0 78 2.3 ESE 24 35 13 19 1023.9 1023.8 0.2
18/05:00pm 20.8 17.7 15.6 72 3.1 ESE 26 35 14 19 1023.5 1023.4 0.2
18/04:30pm 21.4 19.2 15.9 71 3.3 E 22 30 12 16 1023.2 1023.1 0.2
18/04:00pm 22.0 18.7 16.0 68 3.6 E 28 39 15 21 1023.1 1023.0 0.2
18/03:30pm 22.1 18.6 15.4 65 4.0 ESE 28 39 15 21 1022.9 1022.8 0.2
18/03:00pm 22.6 18.6 15.2 63 4.4 ESE 30 39 16 21 1023.0 1022.9 0.2

Latest Capital City Observations: Canberra | Sydney | Melbourne | Brisbane | Adelaide | Perth | Hobart | Darwin

Other Formats:

Comma delimited format used in spreadsheet applications
http://www.bom.gov.au/fwo/IDQ60901/IDQ60901.94568.axf

JavaScript Object Notation format (JSON) in row-major order
http://www.bom.gov.au/fwo/IDQ60901/IDQ60901.94568.json